VCP502 EGPH-EGLL
Flight info
| Callsign | VCP502 |
|---|---|
| Flight time | 0h 56m |
| Altitude | 35000 |
| Route | GOSAM P600 FENIK L612 NAVSO DCT AKOMU DCT VAMEB DCT NUGRA |
| Aircraft | B738/M-SDE2E3FGHIRWXY/LB1 |
Departure
| Time | 2026-05-04 09:07 |
|---|---|
| Airport | Edinburgh Airport (EGPH) |
Arrival
| Time | 2026-05-04 10:04 |
|---|---|
| Airport | London Heathrow Airport (EGLL) |
| Time | Latitude | Longitude | Altitude | Speed | Heading |
|---|---|---|---|---|---|
| 2026-05-04 08:31 | 55.94907 | -3.36497 | 102 ft | 0 kts | 148° |
| 2026-05-04 08:55 | 55.94915 | -3.36506 | 102 ft | 2 kts | 148° |
| 2026-05-04 08:55 | 55.94928 | -3.36520 | 102 ft | 2 kts | 148° |
| 2026-05-04 08:55 | 55.94941 | -3.36534 | 102 ft | 2 kts | 144° |
| 2026-05-04 08:57 | 55.94944 | -3.36609 | 102 ft | 0 kts | 54° |
| 2026-05-04 09:01 | 55.95255 | -3.35925 | 102 ft | 20 kts | 59° |
| 2026-05-04 09:01 | 55.95328 | -3.35709 | 103 ft | 19 kts | 58° |
| 2026-05-04 09:01 | 55.95382 | -3.35547 | 102 ft | 13 kts | 59° |
| 2026-05-04 09:01 | 55.95417 | -3.35447 | 101 ft | 6 kts | 58° |
| 2026-05-04 09:02 | 55.95443 | -3.35405 | 102 ft | 4 kts | 17° |
| 2026-05-04 09:02 | 55.95472 | -3.35413 | 102 ft | 4 kts | 332° |
| 2026-05-04 09:02 | 55.95490 | -3.35432 | 101 ft | 0 kts | 329° |
| 2026-05-04 09:02 | 55.95491 | -3.35433 | 101 ft | 0 kts | 329° |
| 2026-05-04 09:03 | 55.95504 | -3.35447 | 101 ft | 7 kts | 329° |
| 2026-05-04 09:03 | 55.95566 | -3.35513 | 99 ft | 9 kts | 327° |
| 2026-05-04 09:04 | 55.95560 | -3.35594 | 99 ft | 6 kts | 238° |
| 2026-05-04 09:04 | 55.95558 | -3.35598 | 99 ft | 0 kts | 238° |
| 2026-05-04 09:05 | 55.95558 | -3.35600 | 99 ft | 1 kts | 238° |
| 2026-05-04 09:05 | 55.95516 | -3.35724 | 99 ft | 32 kts | 240° |
| 2026-05-04 09:05 | 55.95288 | -3.36402 | 103 ft | 93 kts | 239° |
| 2026-05-04 09:05 | 55.94856 | -3.37675 | 99 ft | 143 kts | 239° |
| 2026-05-04 09:06 | 55.94287 | -3.39351 | 306 ft | 163 kts | 240° |
| 2026-05-04 09:07 | 55.90057 | -3.53864 | 3181 ft | 234 kts | 262° |
| 2026-05-04 09:08 | 55.89827 | -3.56836 | 3590 ft | 248 kts | 262° |
| 2026-05-04 09:08 | 55.89565 | -3.59894 | 4168 ft | 253 kts | 261° |
| 2026-05-04 09:08 | 55.89269 | -3.62989 | 4806 ft | 257 kts | 260° |
| 2026-05-04 09:08 | 55.88956 | -3.66104 | 5461 ft | 259 kts | 259° |
| 2026-05-04 09:09 | 55.88636 | -3.69246 | 6127 ft | 262 kts | 259° |
| 2026-05-04 09:09 | 55.88309 | -3.72469 | 6762 ft | 264 kts | 259° |
| 2026-05-04 09:09 | 55.87983 | -3.75670 | 7374 ft | 267 kts | 260° |
| 2026-05-04 09:09 | 55.87656 | -3.78892 | 7983 ft | 269 kts | 260° |
| 2026-05-04 09:10 | 55.87324 | -3.82211 | 8605 ft | 272 kts | 261° |
| 2026-05-04 09:10 | 55.87000 | -3.85477 | 9231 ft | 275 kts | 261° |
| 2026-05-04 09:10 | 55.86665 | -3.88851 | 9880 ft | 278 kts | 261° |
| 2026-05-04 09:10 | 55.86326 | -3.92248 | 10433 ft | 285 kts | 261° |
| 2026-05-04 09:11 | 55.85967 | -3.95837 | 10759 ft | 301 kts | 261° |
| 2026-05-04 09:11 | 55.85592 | -3.99572 | 11097 ft | 316 kts | 261° |
| 2026-05-04 09:11 | 55.85194 | -4.03518 | 11427 ft | 331 kts | 261° |
| 2026-05-04 09:11 | 55.84780 | -4.07611 | 11779 ft | 345 kts | 261° |
| 2026-05-04 09:12 | 55.84228 | -4.11833 | 12339 ft | 353 kts | 251° |
| 2026-05-04 09:12 | 55.82975 | -4.15619 | 12973 ft | 362 kts | 231° |
| 2026-05-04 09:14 | 55.66063 | -4.24165 | 17371 ft | 411 kts | 156° |
| 2026-05-04 09:14 | 55.63543 | -4.21844 | 17947 ft | 416 kts | 152° |
| 2026-05-04 09:14 | 55.61006 | -4.19288 | 18535 ft | 420 kts | 151° |
| 2026-05-04 09:14 | 55.58496 | -4.16702 | 19109 ft | 423 kts | 150° |
| 2026-05-04 09:15 | 55.55938 | -4.14086 | 19671 ft | 427 kts | 151° |
| 2026-05-04 09:15 | 55.53373 | -4.11506 | 20218 ft | 431 kts | 151° |
| 2026-05-04 09:15 | 55.50769 | -4.08923 | 20753 ft | 435 kts | 151° |
| 2026-05-04 09:15 | 55.48116 | -4.06315 | 21282 ft | 438 kts | 151° |
| 2026-05-04 09:17 | 55.26168 | -3.85095 | 25118 ft | 465 kts | 150° |
| 2026-05-04 09:18 | 55.23332 | -3.82376 | 25565 ft | 468 kts | 150° |
| 2026-05-04 09:18 | 55.20443 | -3.79646 | 26021 ft | 471 kts | 152° |
| 2026-05-04 09:18 | 55.17535 | -3.77039 | 26469 ft | 475 kts | 153° |
| 2026-05-04 09:18 | 55.14573 | -3.74482 | 26912 ft | 478 kts | 153° |
| 2026-05-04 09:19 | 55.11563 | -3.71930 | 27352 ft | 481 kts | 153° |
| 2026-05-04 09:19 | 55.08557 | -3.69398 | 27777 ft | 483 kts | 153° |
| 2026-05-04 09:19 | 55.05515 | -3.66839 | 28195 ft | 486 kts | 153° |
| 2026-05-04 09:19 | 55.02462 | -3.64268 | 28606 ft | 489 kts | 153° |
| 2026-05-04 09:20 | 54.99416 | -3.61699 | 29009 ft | 492 kts | 152° |
| 2026-05-04 09:20 | 54.96376 | -3.59131 | 29560 ft | 489 kts | 152° |
| 2026-05-04 09:20 | 54.93304 | -3.56535 | 30104 ft | 487 kts | 152° |
| 2026-05-04 09:20 | 54.90300 | -3.53994 | 30633 ft | 486 kts | 152° |
| 2026-05-04 09:21 | 54.87255 | -3.51420 | 31135 ft | 485 kts | 152° |
| 2026-05-04 09:21 | 54.84209 | -3.48847 | 31669 ft | 483 kts | 151° |
| 2026-05-04 09:21 | 54.81236 | -3.46337 | 32188 ft | 481 kts | 151° |
| 2026-05-04 09:21 | 54.78220 | -3.43794 | 32724 ft | 479 kts | 151° |
| 2026-05-04 09:22 | 54.75228 | -3.41281 | 33233 ft | 478 kts | 151° |
| 2026-05-04 09:22 | 54.72244 | -3.38810 | 33706 ft | 476 kts | 151° |
| 2026-05-04 09:22 | 54.69270 | -3.36372 | 34163 ft | 474 kts | 151° |
| 2026-05-04 09:22 | 54.66288 | -3.33941 | 34610 ft | 472 kts | 152° |
| 2026-05-04 09:23 | 54.63318 | -3.31525 | 35020 ft | 471 kts | 152° |
| 2026-05-04 09:23 | 54.60348 | -3.29111 | 35082 ft | 474 kts | 152° |
| 2026-05-04 09:23 | 54.54442 | -3.24318 | 35087 ft | 466 kts | 152° |
| 2026-05-04 09:25 | 54.31229 | -3.04988 | 35017 ft | 465 kts | 150° |
| 2026-05-04 09:26 | 54.25448 | -3.00127 | 35021 ft | 465 kts | 150° |
| 2026-05-04 09:26 | 54.19650 | -2.95278 | 35037 ft | 465 kts | 150° |
| 2026-05-04 09:27 | 54.13812 | -2.90535 | 35053 ft | 465 kts | 152° |
| 2026-05-04 09:27 | 54.07880 | -2.86181 | 35074 ft | 466 kts | 153° |
| 2026-05-04 09:28 | 54.01897 | -2.81929 | 35093 ft | 465 kts | 153° |
| 2026-05-04 09:28 | 53.95848 | -2.78090 | 35104 ft | 467 kts | 158° |
| 2026-05-04 09:29 | 53.89605 | -2.74849 | 35106 ft | 467 kts | 160° |
| 2026-05-04 09:29 | 53.83405 | -2.71746 | 35109 ft | 464 kts | 160° |
| 2026-05-04 09:30 | 53.77257 | -2.68630 | 35121 ft | 462 kts | 159° |
| 2026-05-04 09:30 | 53.71098 | -2.65459 | 35124 ft | 462 kts | 159° |
| 2026-05-04 09:31 | 53.64979 | -2.62284 | 35121 ft | 462 kts | 159° |
| 2026-05-04 09:31 | 53.58852 | -2.59098 | 35116 ft | 462 kts | 159° |
| 2026-05-04 09:32 | 53.52701 | -2.55903 | 35109 ft | 461 kts | 159° |
| 2026-05-04 09:34 | 53.28234 | -2.43276 | 35080 ft | 460 kts | 159° |
| 2026-05-04 09:34 | 53.22144 | -2.40157 | 35076 ft | 459 kts | 159° |
| 2026-05-04 09:35 | 53.16037 | -2.37038 | 35072 ft | 458 kts | 160° |
| 2026-05-04 09:35 | 53.09996 | -2.33962 | 35069 ft | 457 kts | 160° |
| 2026-05-04 09:37 | 52.90457 | -2.17575 | 34700 ft | 445 kts | 145° |
| 2026-05-04 09:37 | 52.87855 | -2.14783 | 34216 ft | 444 kts | 145° |
| 2026-05-04 09:38 | 52.85269 | -2.12017 | 33580 ft | 447 kts | 145° |
| 2026-05-04 09:38 | 52.82643 | -2.09227 | 32920 ft | 449 kts | 145° |
| 2026-05-04 09:38 | 52.80092 | -2.06535 | 32449 ft | 447 kts | 146° |
| 2026-05-04 09:38 | 52.77441 | -2.03753 | 31933 ft | 445 kts | 146° |
| 2026-05-04 09:39 | 52.74814 | -2.01010 | 31412 ft | 443 kts | 146° |
| 2026-05-04 09:39 | 52.72338 | -1.98435 | 30949 ft | 441 kts | 146° |
| 2026-05-04 09:39 | 52.70159 | -1.96170 | 29276 ft | 440 kts | 147° |
| 2026-05-04 09:39 | 52.67517 | -1.93429 | 29033 ft | 430 kts | 148° |
| 2026-05-04 09:40 | 52.65020 | -1.90848 | 28831 ft | 420 kts | 148° |
| 2026-05-04 09:40 | 52.62561 | -1.88315 | 28585 ft | 412 kts | 148° |
| 2026-05-04 09:40 | 52.60117 | -1.85799 | 28310 ft | 412 kts | 148° |
| 2026-05-04 09:40 | 52.57679 | -1.83293 | 27897 ft | 415 kts | 148° |
| 2026-05-04 09:41 | 52.55266 | -1.80817 | 27416 ft | 413 kts | 148° |
| 2026-05-04 09:42 | 52.38621 | -1.63822 | 23734 ft | 390 kts | 149° |
| 2026-05-04 09:43 | 52.36364 | -1.61526 | 23236 ft | 386 kts | 149° |
| 2026-05-04 09:43 | 52.34099 | -1.59224 | 22749 ft | 382 kts | 149° |
| 2026-05-04 09:43 | 52.31834 | -1.56926 | 22246 ft | 378 kts | 149° |
| 2026-05-04 09:43 | 52.29613 | -1.54676 | 21755 ft | 375 kts | 149° |
| 2026-05-04 09:44 | 52.27411 | -1.52449 | 21264 ft | 372 kts | 149° |
| 2026-05-04 09:44 | 52.25224 | -1.50239 | 20774 ft | 369 kts | 149° |
| 2026-05-04 09:44 | 52.23064 | -1.48048 | 20305 ft | 365 kts | 149° |
| 2026-05-04 09:46 | 52.09783 | -1.30099 | 18352 ft | 351 kts | 141° |
| 2026-05-04 09:46 | 52.07910 | -1.27473 | 18028 ft | 350 kts | 141° |
| 2026-05-04 09:46 | 52.06090 | -1.24935 | 17623 ft | 348 kts | 141° |
| 2026-05-04 09:47 | 52.04256 | -1.22388 | 17137 ft | 346 kts | 141° |
| 2026-05-04 09:47 | 52.02424 | -1.19851 | 16672 ft | 343 kts | 141° |
| 2026-05-04 09:49 | 51.90186 | -1.02967 | 13441 ft | 309 kts | 141° |
| 2026-05-04 09:49 | 51.88585 | -1.00763 | 13272 ft | 297 kts | 141° |
| 2026-05-04 09:49 | 51.87022 | -0.98616 | 13080 ft | 288 kts | 141° |
| 2026-05-04 09:51 | 51.81286 | -0.83125 | 11329 ft | 263 kts | 117° |
| 2026-05-04 09:51 | 51.80479 | -0.80476 | 10923 ft | 261 kts | 117° |
| 2026-05-04 09:51 | 51.79676 | -0.77865 | 10519 ft | 259 kts | 117° |
| 2026-05-04 09:51 | 51.78874 | -0.75263 | 10120 ft | 258 kts | 117° |
| 2026-05-04 09:52 | 51.78087 | -0.72708 | 9728 ft | 256 kts | 117° |
| 2026-05-04 09:52 | 51.77291 | -0.70122 | 9328 ft | 255 kts | 117° |
| 2026-05-04 09:52 | 51.76509 | -0.67585 | 8935 ft | 253 kts | 117° |
| 2026-05-04 09:52 | 51.75733 | -0.65067 | 8546 ft | 252 kts | 116° |
| 2026-05-04 09:53 | 51.74956 | -0.62552 | 8238 ft | 248 kts | 116° |
| 2026-05-04 09:53 | 51.74188 | -0.60063 | 8067 ft | 249 kts | 116° |
| 2026-05-04 09:53 | 51.73411 | -0.57552 | 7997 ft | 248 kts | 116° |
| 2026-05-04 09:53 | 51.72620 | -0.55072 | 7888 ft | 250 kts | 120° |
| 2026-05-04 09:54 | 51.71675 | -0.52720 | 7786 ft | 249 kts | 124° |
| 2026-05-04 09:54 | 51.70645 | -0.50469 | 7688 ft | 249 kts | 126° |
| 2026-05-04 09:54 | 51.69604 | -0.48243 | 7588 ft | 248 kts | 126° |
| 2026-05-04 09:54 | 51.68587 | -0.46038 | 7490 ft | 247 kts | 125° |
| 2026-05-04 09:55 | 51.67570 | -0.43803 | 7391 ft | 247 kts | 125° |
| 2026-05-04 09:55 | 51.66555 | -0.41556 | 7287 ft | 246 kts | 125° |
| 2026-05-04 09:55 | 51.65543 | -0.39311 | 7192 ft | 245 kts | 125° |
| 2026-05-04 09:55 | 51.64540 | -0.37086 | 7120 ft | 245 kts | 125° |
| 2026-05-04 09:56 | 51.63549 | -0.34887 | 7001 ft | 245 kts | 126° |
| 2026-05-04 09:56 | 51.62537 | -0.32643 | 6901 ft | 244 kts | 126° |
| 2026-05-04 09:56 | 51.61544 | -0.30439 | 6803 ft | 244 kts | 126° |
| 2026-05-04 09:56 | 51.60514 | -0.28211 | 6657 ft | 246 kts | 127° |
| 2026-05-04 09:57 | 51.59481 | -0.26006 | 6340 ft | 246 kts | 127° |
| 2026-05-04 09:57 | 51.58463 | -0.23802 | 6107 ft | 242 kts | 126° |
| 2026-05-04 09:57 | 51.57483 | -0.21654 | 5942 ft | 236 kts | 126° |
| 2026-05-04 09:57 | 51.56504 | -0.19498 | 5540 ft | 240 kts | 126° |
| 2026-05-04 09:58 | 51.55523 | -0.17348 | 5163 ft | 234 kts | 126° |
| 2026-05-04 09:58 | 51.54572 | -0.15270 | 4844 ft | 225 kts | 126° |
| 2026-05-04 09:58 | 51.53661 | -0.13292 | 4533 ft | 216 kts | 128° |
| 2026-05-04 10:00 | 51.47806 | -0.19262 | 3129 ft | 189 kts | 270° |
| 2026-05-04 10:00 | 51.47795 | -0.21340 | 2879 ft | 188 kts | 271° |
| 2026-05-04 10:02 | 51.47781 | -0.35298 | 1143 ft | 155 kts | 272° |
| 2026-05-04 10:04 | 51.47748 | -0.45778 | 91 ft | 29 kts | 247° |
| 2026-05-04 10:04 | 51.47656 | -0.45959 | 91 ft | 17 kts | 224° |
| 2026-05-04 10:04 | 51.47612 | -0.46020 | 91 ft | 6 kts | 223° |
| 2026-05-04 10:04 | 51.47563 | -0.46077 | 91 ft | 11 kts | 196° |
| 2026-05-04 10:05 | 51.47518 | -0.46012 | 91 ft | 10 kts | 92° |
| 2026-05-04 10:05 | 51.47516 | -0.45900 | 91 ft | 11 kts | 90° |
| 2026-05-04 10:05 | 51.47510 | -0.45735 | 91 ft | 18 kts | 101° |
| 2026-05-04 10:05 | 51.47507 | -0.45511 | 91 ft | 20 kts | 90° |
| 2026-05-04 10:06 | 51.47508 | -0.45282 | 91 ft | 20 kts | 90° |
| 2026-05-04 10:06 | 51.47508 | -0.45061 | 91 ft | 19 kts | 90° |
| 2026-05-04 10:06 | 51.47509 | -0.44849 | 91 ft | 18 kts | 89° |
| 2026-05-04 10:08 | 51.47094 | -0.44554 | 91 ft | 14 kts | 179° |
| 2026-05-04 10:08 | 51.47028 | -0.44552 | 91 ft | 7 kts | 179° |
| 2026-05-04 10:08 | 51.46994 | -0.44581 | 91 ft | 5 kts | 262° |
| 2026-05-04 10:08 | 51.46996 | -0.44635 | 91 ft | 4 kts | 271° |
| 2026-05-04 10:09 | 51.46996 | -0.44660 | 91 ft | 0 kts | 270° |
| 2026-05-04 10:09 | 51.46996 | -0.44665 | 91 ft | 1 kts | 269° |
| 2026-05-04 10:09 | 51.46996 | -0.44669 | 91 ft | 0 kts | 270° |